Time;durP1;ratioP1;P1;durP2;ratioP2;P2;SDS_P1;SDS_P2;PMS_P1;PMS_P2;Temp;Humidity;BMP_temperature;BMP_pressure;BME280_temperature;BME280_humidity;BME280_pressure;Samples;Min_cycle;Max_cycle;Signal;HPM_P1;HPM_P2
2023/08/26 00:01:55;;;;;;;31.80;21.42;;;;;;;15.78;nan;100938.97;5023328;28;20032;-76
2023/08/26 00:04:21;;;;;;;30.27;18.25;;;;;;;15.62;nan;100950.09;5023565;28;20025;-76
2023/08/26 00:06:47;;;;;;;27.48;16.10;;;;;;;15.44;nan;100950.88;5020931;28;20048;-75
2023/08/26 00:09:12;;;;;;;30.92;16.10;;;;;;;15.34;nan;100952.19;5022714;28;20053;-76
2023/08/26 00:11:38;;;;;;;23.45;14.82;;;;;;;15.23;nan;100947.38;5022259;28;20026;-76
2023/08/26 00:14:03;;;;;;;22.40;14.85;;;;;;;15.14;nan;100945.09;5023043;28;20080;-76
2023/08/26 00:16:29;;;;;;;23.02;14.80;;;;;;;15.11;nan;100943.47;5021665;28;20041;-76
2023/08/26 00:18:55;;;;;;;25.85;15.38;;;;;;;15.03;nan;100942.94;5022802;28;20056;-76
2023/08/26 00:21:21;;;;;;;23.67;14.90;;;;;;;14.99;nan;100939.56;5021993;28;20064;-76
2023/08/26 00:23:49;;;;;;;22.30;13.93;;;;;;;14.92;nan;100950.38;5022355;28;20029;-76
2023/08/26 00:26:16;;;;;;;23.17;14.15;;;;;;;14.92;nan;100948.63;5022798;28;20108;-75
2023/08/26 00:28:42;;;;;;;23.70;14.40;;;;;;;14.93;nan;100949.47;5022741;28;20482;-76
2023/08/26 00:31:07;;;;;;;24.77;13.90;;;;;;;14.89;nan;100950.50;5016934;28;20030;-76
2023/08/26 00:33:32;;;;;;;18.92;11.90;;;;;;;14.89;nan;100947.88;5025051;28;20401;-76
2023/08/26 00:35:58;;;;;;;20.70;12.40;;;;;;;14.85;nan;100944.53;5020038;28;20489;-75
2023/08/26 00:38:24;;;;;;;14.77;11.32;;;;;;;14.68;nan;100934.69;5026632;28;20069;-75
2023/08/26 00:40:49;;;;;;;16.42;9.73;;;;;;;14.68;nan;100939.94;5020112;28;20022;-76
2023/08/26 00:43:15;;;;;;;16.42;9.65;;;;;;;14.58;nan;100938.56;5010875;28;20029;-76
2023/08/26 00:45:42;;;;;;;20.27;10.85;;;;;;;14.51;nan;100942.34;5019605;28;20163;-75
2023/08/26 00:48:11;;;;;;;17.90;9.18;;;;;;;14.41;nan;100946.19;5027640;28;20061;-76
2023/08/26 00:50:38;;;;;;;15.15;9.07;;;;;;;14.35;nan;100951.66;5013183;28;20079;-76
2023/08/26 00:53:04;;;;;;;12.88;8.38;;;;;;;14.26;nan;100947.66;5023949;28;20034;-75
2023/08/26 00:55:30;;;;;;;14.43;8.02;;;;;;;14.15;nan;100953.25;5014915;28;20070;-75
2023/08/26 00:57:56;;;;;;;9.88;6.68;;;;;;;14.12;nan;100952.53;5024177;28;20123;-76
2023/08/26 01:00:22;;;;;;;16.05;6.88;;;;;;;14.03;nan;100956.34;5020188;28;20517;-76
2023/08/26 01:02:48;;;;;;;11.00;6.47;;;;;;;13.97;nan;100957.41;5025699;28;20026;-76
2023/08/26 01:05:13;;;;;;;11.20;6.82;;;;;;;13.90;nan;100949.84;5018629;28;20028;-75
2023/08/26 01:07:39;;;;;;;12.90;6.47;;;;;;;13.84;nan;100961.38;5026590;28;20040;-75
2023/08/26 01:10:05;;;;;;;8.32;5.65;;;;;;;13.77;nan;100952.88;5019921;28;20109;-75
2023/08/26 01:13:04;;;;;;;14.63;5.70;;;;;;;13.71;nan;100962.72;5025860;28;20045;-76
2023/08/26 01:15:30;;;;;;;10.02;5.82;;;;;;;13.58;nan;100963.13;5015892;28;20048;-76
2023/08/26 01:17:59;;;;;;;8.73;5.65;;;;;;;13.58;nan;100957.88;5026047;28;20026;-76
2023/08/26 01:20:25;;;;;;;9.57;5.40;;;;;;;13.49;nan;100962.59;5019056;28;20041;-76
2023/08/26 01:22:53;;;;;;;10.73;5.43;;;;;;;13.49;nan;100962.59;5019797;28;20034;-76
2023/08/26 01:25:19;;;;;;;8.73;4.85;;;;;;;13.40;nan;100961.13;5018678;28;20113;-76
2023/08/26 01:27:44;;;;;;;13.77;5.43;;;;;;;13.37;nan;100965.59;5027219;28;20534;-76
2023/08/26 01:30:12;;;;;;;8.93;5.05;;;;;;;13.35;nan;100969.13;5019026;28;20037;-76
2023/08/26 01:32:48;;;;;;;12.50;5.03;;;;;;;13.32;nan;100969.22;5026023;28;20143;-76
2023/08/26 01:35:17;;;;;;;7.13;5.53;;;;;;;13.26;nan;100969.44;5022717;28;20486;-76
2023/08/26 01:37:45;;;;;;;18.35;6.38;;;;;;;13.19;nan;100970.50;5022389;28;20056;-76
2023/08/26 01:40:12;;;;;;;10.75;5.25;;;;;;;13.19;nan;100973.13;5013687;28;20102;-76
2023/08/26 01:42:40;;;;;;;8.43;4.80;;;;;;;13.19;nan;100960.03;5022415;28;20025;-76
2023/08/26 01:45:06;;;;;;;14.30;5.07;;;;;;;13.13;nan;100962.84;5026618;28;20025;-75
2023/08/26 01:47:31;;;;;;;15.98;5.60;;;;;;;13.17;nan;100964.47;5024119;28;20096;-75
2023/08/26 01:49:57;;;;;;;9.13;5.10;;;;;;;13.07;nan;100963.03;5024940;28;20152;-76
2023/08/26 01:52:22;;;;;;;10.10;5.05;;;;;;;13.05;nan;100970.09;5024468;28;20034;-76
2023/08/26 01:54:49;;;;;;;10.68;4.72;;;;;;;12.99;nan;100965.06;5025494;28;20025;-76
2023/08/26 01:57:17;;;;;;;9.85;5.25;;;;;;;12.99;nan;100970.28;5023288;28;20034;-75
2023/08/26 01:59:42;;;;;;;9.60;4.30;;;;;;;12.93;nan;100970.47;5013747;28;20033;-75
2023/08/26 02:02:08;;;;;;;9.98;4.25;;;;;;;12.88;nan;100971.50;5020576;28;20042;-76
2023/08/26 02:04:33;;;;;;;7.28;4.60;;;;;;;12.87;nan;100972.38;5022958;28;20115;-76
2023/08/26 02:06:58;;;;;;;6.55;4.90;;;;;;;12.81;nan;100972.56;5021447;28;20033;-75
2023/08/26 02:09:24;;;;;;;8.40;4.35;;;;;;;12.84;nan;100967.22;5022376;28;20507;-75
2023/08/26 02:11:49;;;;;;;8.57;4.63;;;;;;;12.78;nan;100956.94;5024370;28;20025;-75
2023/08/26 02:14:14;;;;;;;7.78;4.30;;;;;;;12.77;nan;100963.09;5022372;28;20465;-75
2023/08/26 02:16:40;;;;;;;11.10;4.60;;;;;;;12.74;nan;100963.19;5030174;28;20049;-75
2023/08/26 02:19:05;;;;;;;9.68;4.45;;;;;;;12.71;nan;100965.91;5023074;28;20351;-76
2023/08/26 02:21:30;;;;;;;7.47;4.70;;;;;;;12.65;nan;100961.72;5027842;28;20400;-75
2023/08/26 02:23:55;;;;;;;10.63;4.65;;;;;;;12.60;nan;100963.59;5023534;28;20472;-75
2023/08/26 02:26:21;;;;;;;9.77;4.65;;;;;;;12.58;nan;100954.09;5026675;28;20075;-75
2023/08/26 02:28:46;;;;;;;9.95;4.85;;;;;;;12.55;nan;100957.66;5017803;28;20030;-75
2023/08/26 02:31:11;;;;;;;7.45;4.85;;;;;;;12.51;nan;100953.41;5025448;28;20469;-75
2023/08/26 02:33:37;;;;;;;8.85;4.63;;;;;;;12.57;nan;100960.22;5025752;28;20083;-75
2023/08/26 02:36:03;;;;;;;9.80;4.75;;;;;;;12.54;nan;100965.56;5024049;28;20397;-75
2023/08/26 02:38:31;;;;;;;11.82;4.70;;;;;;;12.51;nan;100966.50;5025225;28;20037;-75
2023/08/26 02:40:57;;;;;;;12.10;4.75;;;;;;;12.51;nan;100960.41;5025261;28;20029;-75
2023/08/26 02:43:22;;;;;;;7.93;4.43;;;;;;;12.48;nan;100963.13;5012968;28;20485;-75
2023/08/26 02:45:52;;;;;;;7.57;4.57;;;;;;;12.46;nan;100964.91;5018548;28;20018;-75
2023/08/26 02:48:17;;;;;;;9.63;5.15;;;;;;;12.45;nan;100964.06;5022172;28;20029;-75
2023/08/26 02:50:43;;;;;;;8.32;4.60;;;;;;;12.41;nan;100952.81;5024785;28;20029;-75
2023/08/26 02:53:08;;;;;;;10.68;4.57;;;;;;;12.38;nan;100957.28;5023345;28;20088;-75
2023/08/26 02:55:33;;;;;;;5.78;4.25;;;;;;;12.35;nan;100957.38;5027276;28;20041;-75
2023/08/26 02:57:59;;;;;;;10.13;4.50;;;;;;;12.29;nan;100958.41;5021220;28;20095;-75
2023/08/26 03:00:24;;;;;;;9.55;5.15;;;;;;;12.26;nan;100961.13;5020102;28;20033;-75
2023/08/26 03:02:49;;;;;;;10.75;5.05;;;;;;;12.23;nan;100958.59;5014301;28;20068;-75
2023/08/26 03:05:15;;;;;;;17.50;4.18;;;;;;;12.23;nan;100962.94;5020693;28;20048;-75
2023/08/26 03:07:40;;;;;;;6.80;4.15;;;;;;;12.18;nan;100963.94;5024508;28;20473;-75
2023/08/26 03:10:06;;;;;;;6.45;4.05;;;;;;;12.12;nan;100951.03;5025792;28;20054;-75
2023/08/26 03:12:31;;;;;;;8.07;4.05;;;;;;;12.08;nan;100953.81;5015876;28;20029;-75
2023/08/26 03:14:57;;;;;;;7.43;4.18;;;;;;;12.06;nan;100956.44;5019824;28;20026;-75
2023/08/26 03:17:22;;;;;;;9.13;4.72;;;;;;;12.08;nan;100964.25;5021171;28;20487;-75
2023/08/26 03:19:47;;;;;;;8.43;4.40;;;;;;;12.06;nan;100960.81;5021170;28;20390;-75
2023/08/26 03:22:13;;;;;;;10.05;4.35;;;;;;;12.07;nan;100966.00;5017411;28;20068;-75
2023/08/26 03:24:38;;;;;;;8.70;4.32;;;;;;;12.05;nan;100967.81;5028117;28;20029;-75
2023/08/26 03:27:04;;;;;;;8.23;4.50;;;;;;;11.99;nan;100967.13;5021576;28;20394;-75
2023/08/26 03:29:29;;;;;;;8.50;3.95;;;;;;;11.94;nan;100962.03;5016462;28;20037;-75
2023/08/26 03:31:54;;;;;;;10.43;4.68;;;;;;;11.98;nan;100968.03;5022981;28;20472;-75
2023/08/26 03:34:20;;;;;;;8.95;4.03;;;;;;;11.95;nan;100961.13;5015415;28;20037;-75
2023/08/26 03:36:45;;;;;;;8.63;4.30;;;;;;;11.92;nan;100959.44;5017094;28;20056;-75
2023/08/26 03:39:10;;;;;;;7.25;4.18;;;;;;;11.92;nan;100959.44;5023342;28;20034;-75
2023/08/26 03:41:36;;;;;;;6.93;4.90;;;;;;;11.88;nan;100957.81;5021002;28;20038;-75
2023/08/26 03:44:04;;;;;;;8.93;4.50;;;;;;;11.91;nan;100976.03;5017552;28;20436;-75
2023/08/26 03:46:29;;;;;;;8.25;4.50;;;;;;;11.87;nan;100960.44;5020165;28;20026;-75
2023/08/26 03:48:55;;;;;;;12.48;4.57;;;;;;;11.82;nan;100963.16;5018408;28;20084;-75
2023/08/26 03:51:20;;;;;;;12.20;4.30;;;;;;;11.80;nan;100964.94;5024017;28;20495;-75
2023/08/26 03:53:45;;;;;;;10.98;4.50;;;;;;;11.80;nan;100959.72;5023128;28;20091;-75
2023/08/26 03:56:13;;;;;;;9.65;4.43;;;;;;;11.80;nan;100967.56;5026158;28;20120;-75
2023/08/26 03:58:39;;;;;;;9.88;4.55;;;;;;;11.78;nan;100969.38;5021778;28;20025;-75
2023/08/26 04:01:04;;;;;;;8.07;4.35;;;;;;;11.77;nan;100985.06;5023643;28;20029;-75
2023/08/26 04:03:30;;;;;;;9.50;4.20;;;;;;;11.72;nan;100978.22;5029394;28;20346;-75
2023/08/26 04:06:03;;;;;;;8.55;4.45;;;;;;;11.73;nan;100985.16;5023855;28;20025;-75
2023/08/26 04:08:33;;;;;;;11.10;4.38;;;;;;;11.73;nan;100986.91;5021431;28;20029;-75
2023/08/26 04:10:59;;;;;;;9.70;4.63;;;;;;;11.69;nan;100987.91;5023868;28;20040;-74
2023/08/26 04:13:27;;;;;;;7.82;4.80;;;;;;;11.59;nan;100989.88;5021974;28;20033;-75
2023/08/26 04:15:53;;;;;;;9.80;4.45;;;;;;;11.60;nan;100988.97;5023624;28;20116;-75
2023/08/26 04:18:19;;;;;;;9.40;4.45;;;;;;;11.64;nan;100994.97;5023607;28;20025;-75
2023/08/26 04:20:45;;;;;;;5.53;4.30;;;;;;;11.57;nan;100993.41;5022051;28;20026;-75
2023/08/26 04:23:10;;;;;;;9.73;4.20;;;;;;;11.56;nan;101007.38;5023268;28;20043;-75
2023/08/26 04:25:37;;;;;;;9.98;4.00;;;;;;;11.54;nan;101003.94;5023458;28;20037;-75
2023/08/26 04:28:03;;;;;;;11.07;4.82;;;;;;;11.57;nan;101006.47;5022014;28;20499;-75
2023/08/26 04:30:28;;;;;;;8.48;4.43;;;;;;;11.54;nan;101003.94;5024705;28;20069;-75
2023/08/26 04:32:53;;;;;;;6.88;4.30;;;;;;;11.48;nan;101008.44;5021228;28;20029;-75
2023/08/26 04:35:18;;;;;;;6.82;4.30;;;;;;;11.47;nan;101011.06;5026107;28;20022;-75
2023/08/26 04:37:44;;;;;;;8.10;4.03;;;;;;;11.48;nan;101012.81;5020212;28;20446;-75
2023/08/26 04:40:13;;;;;;;8.68;4.20;;;;;;;11.46;nan;101012.81;5027562;28;20112;-75
2023/08/26 04:42:39;;;;;;;6.53;3.78;;;;;;;11.45;nan;101018.94;5019587;28;20030;-75
2023/08/26 04:45:05;;;;;;;7.07;4.13;;;;;;;11.45;nan;101024.16;5017507;28;20251;-75
2023/08/26 04:47:30;;;;;;;11.10;4.10;;;;;;;11.39;nan;101016.47;5014435;28;20029;-75
2023/08/26 04:49:56;;;;;;;9.80;4.20;;;;;;;11.42;nan;101020.78;5017778;28;20152;-75
2023/08/26 04:52:21;;;;;;;9.70;4.03;;;;;;;11.39;nan;101026.94;5018328;28;20061;-75
2023/08/26 04:54:46;;;;;;;7.43;4.03;;;;;;;11.44;nan;101019.84;5024482;28;20041;-75
2023/08/26 04:57:12;;;;;;;7.55;4.05;;;;;;;11.45;nan;101025.94;5019022;28;20040;-75
2023/08/26 04:59:37;;;;;;;7.88;3.80;;;;;;;11.41;nan;101032.97;5013575;28;20050;-75
2023/08/26 05:02:06;;;;;;;6.43;3.97;;;;;;;11.41;nan;101040.81;5018233;28;20080;-75
2023/08/26 05:04:31;;;;;;;4.63;3.63;;;;;;;11.37;nan;101041.75;5026003;28;20108;-75
2023/08/26 05:06:56;;;;;;;12.10;4.20;;;;;;;11.37;nan;101038.28;5019782;28;20114;-75
2023/08/26 05:09:22;;;;;;;6.18;3.95;;;;;;;11.41;nan;101046.03;5030378;28;20079;-75
2023/08/26 05:11:47;;;;;;;7.28;4.07;;;;;;;11.38;nan;101045.22;5023465;28;20026;-75
2023/08/26 05:14:13;;;;;;;9.63;4.22;;;;;;;11.43;nan;101053.81;5028583;28;20068;-75
2023/08/26 05:16:38;;;;;;;6.15;4.13;;;;;;;11.43;nan;101044.22;5025767;28;20033;-75
2023/08/26 05:19:03;;;;;;;7.25;4.10;;;;;;;11.46;nan;101040.69;5021706;28;20040;-76
2023/08/26 05:21:30;;;;;;;9.18;4.13;;;;;;;11.49;nan;101045.84;5026614;28;20112;-75
2023/08/26 05:23:55;;;;;;;14.68;4.07;;;;;;;11.55;nan;101045.69;5025459;28;20425;-75
2023/08/26 05:26:21;;;;;;;8.30;4.03;;;;;;;11.59;nan;101042.09;5026609;28;20075;-75
2023/08/26 05:28:46;;;;;;;11.38;3.97;;;;;;;11.57;nan;101024.75;5026210;28;20068;-75
2023/08/26 05:31:11;;;;;;;8.27;4.45;;;;;;;11.70;nan;101047.06;5022263;28;20052;-75
2023/08/26 05:33:37;;;;;;;10.07;4.80;;;;;;;11.76;nan;101046.91;5024343;28;20061;-75
2023/08/26 05:36:02;;;;;;;7.88;4.07;;;;;;;11.79;nan;101045.97;5025678;28;20069;-75
2023/08/26 05:38:28;;;;;;;10.63;4.80;;;;;;;11.84;nan;101045.00;5025243;28;20042;-75
2023/08/26 05:40:53;;;;;;;6.78;4.22;;;;;;;11.88;nan;101040.56;5026979;28;20530;-75
2023/08/26 05:43:18;;;;;;;10.50;4.60;;;;;;;11.92;nan;101037.81;5025926;28;20075;-75
2023/08/26 05:45:44;;;;;;;7.60;4.57;;;;;;;12.01;nan;101039.34;5022511;28;20413;-75
2023/08/26 05:48:09;;;;;;;9.68;4.65;;;;;;;12.04;nan;101030.56;5023316;28;20045;-75
2023/08/26 05:50:35;;;;;;;8.48;4.55;;;;;;;12.12;nan;101036.44;5026377;28;20037;-75
2023/08/26 05:53:00;;;;;;;8.90;4.25;;;;;;;12.14;nan;101026.81;5025010;28;20026;-75
2023/08/26 05:55:25;;;;;;;7.70;4.13;;;;;;;12.18;nan;101031.91;5025017;28;20611;-75
2023/08/26 05:57:51;;;;;;;11.20;5.03;;;;;;;12.17;nan;101017.13;5024936;28;20049;-75
2023/08/26 06:00:17;;;;;;;10.48;5.00;;;;;;;12.30;nan;101033.34;5018208;28;20037;-75
2023/08/26 06:02:42;;;;;;;12.90;5.28;;;;;;;12.37;nan;101039.25;5024522;28;20029;-75
2023/08/26 06:05:07;;;;;;;10.10;4.40;;;;;;;12.40;nan;101032.19;5022288;28;20030;-75
2023/08/26 06:07:33;;;;;;;9.18;4.88;;;;;;;12.46;nan;101031.16;5016112;28;20053;-75
2023/08/26 06:09:58;;;;;;;14.60;4.90;;;;;;;12.49;nan;101038.03;5026413;28;20370;-75
2023/08/26 06:12:23;;;;;;;12.85;5.07;;;;;;;12.51;nan;101025.78;5022506;28;20041;-75
2023/08/26 06:14:49;;;;;;;9.55;4.85;;;;;;;12.58;nan;101022.09;5029473;28;20113;-75
2023/08/26 06:17:14;;;;;;;8.07;4.25;;;;;;;12.66;nan;101020.13;5022136;28;20120;-75
2023/08/26 06:19:39;;;;;;;9.73;4.53;;;;;;;12.71;nan;101020.81;5028886;28;20036;-75
2023/08/26 06:22:05;;;;;;;12.90;4.47;;;;;;;12.78;nan;101024.97;5017349;28;20072;-76
2023/08/26 06:24:30;;;;;;;11.45;4.57;;;;;;;12.83;nan;101028.31;5028412;28;20033;-75
2023/08/26 06:26:55;;;;;;;10.27;5.43;;;;;;;12.79;nan;101004.94;5018945;28;20038;-75
2023/08/26 06:29:24;;;;;;;10.38;4.80;;;;;;;12.91;nan;101022.84;5026106;28;20040;-75
2023/08/26 06:31:49;;;;;;;14.02;5.28;;;;;;;12.95;nan;101019.25;5018106;28;20077;-75
2023/08/26 06:34:15;;;;;;;11.48;5.00;;;;;;;13.07;nan;101025.84;5026106;28;20021;-76
2023/08/26 06:36:40;;;;;;;9.90;5.13;;;;;;;13.10;nan;101024.00;5030602;28;20101;-75
2023/08/26 06:39:06;;;;;;;9.82;4.43;;;;;;;13.18;nan;101028.13;5025374;28;20033;-75
2023/08/26 06:41:34;;;;;;;9.02;4.30;;;;;;;13.24;nan;101030.56;5024733;28;20440;-75
2023/08/26 06:43:59;;;;;;;8.40;3.83;;;;;;;13.29;nan;101028.69;5017466;28;20022;-75
2023/08/26 06:46:25;;;;;;;7.78;4.22;;;;;;;13.34;nan;101032.91;5022783;28;20099;-76
2023/08/26 06:48:50;;;;;;;7.63;4.18;;;;;;;13.40;nan;101020.50;5026727;28;20393;-75
2023/08/26 06:51:16;;;;;;;7.88;4.80;;;;;;;13.42;nan;101016.06;5023439;28;20446;-75
2023/08/26 06:53:41;;;;;;;7.63;3.65;;;;;;;13.48;nan;101010.63;5025567;28;20109;-75
2023/08/26 06:56:07;;;;;;;11.50;4.20;;;;;;;13.55;nan;101012.16;5024195;28;20413;-75
2023/08/26 06:58:32;;;;;;;7.85;3.75;;;;;;;13.54;nan;100994.72;5013128;28;20076;-75
2023/08/26 07:00:58;;;;;;;12.27;3.53;;;;;;;13.66;nan;101020.50;5023506;28;20021;-75
2023/08/26 07:03:24;;;;;;;10.27;3.35;;;;;;;13.75;nan;101020.19;5022184;28;20037;-75
2023/08/26 07:05:50;;;;;;;6.35;3.20;;;;;;;13.82;nan;101028.69;5029122;28;20473;-75
2023/08/26 07:08:16;;;;;;;12.68;4.28;;;;;;;13.87;nan;101028.56;5023895;28;20029;-75
2023/08/26 07:10:44;;;;;;;8.93;3.90;;;;;;;13.92;nan;101029.25;5023611;28;20037;-75
2023/08/26 07:13:10;;;;;;;8.20;3.53;;;;;;;13.88;nan;101002.28;5024681;28;20056;-75
2023/08/26 07:15:35;;;;;;;6.00;3.22;;;;;;;14.05;nan;101015.66;5023886;28;20053;-75
2023/08/26 07:18:01;;;;;;;5.78;2.90;;;;;;;14.07;nan;101010.38;5025531;28;20026;-75
2023/08/26 07:20:27;;;;;;;3.78;3.00;;;;;;;14.19;nan;101017.81;5024256;28;20439;-75
2023/08/26 07:22:52;;;;;;;7.85;3.55;;;;;;;14.21;nan;101007.25;5023351;28;20029;-75
2023/08/26 07:25:18;;;;;;;8.68;2.90;;;;;;;14.33;nan;101014.69;5025946;28;20034;-76
2023/08/26 07:27:43;;;;;;;9.43;3.30;;;;;;;14.38;nan;101017.13;5024073;28;20017;-72
2023/08/26 07:30:09;;;;;;;5.97;2.90;;;;;;;14.44;nan;101019.53;5021293;28;20079;-72
2023/08/26 07:32:34;;;;;;;7.45;3.30;;;;;;;14.55;nan;101022.66;5015797;28;20025;-72
2023/08/26 07:35:00;;;;;;;10.13;3.22;;;;;;;14.61;nan;101021.56;5022800;28;20026;-72
2023/08/26 07:37:25;;;;;;;6.72;2.97;;;;;;;14.71;nan;101018.56;5023328;28;20056;-73
2023/08/26 07:39:50;;;;;;;6.43;3.30;;;;;;;14.76;nan;101021.00;5020258;28;20528;-73
2023/08/26 07:42:19;;;;;;;7.78;3.20;;;;;;;14.84;nan;101021.53;5017955;28;20033;-73
2023/08/26 07:44:44;;;;;;;5.05;3.35;;;;;;;14.93;nan;101020.34;5026920;28;20321;-73
2023/08/26 07:47:09;;;;;;;5.97;2.80;;;;;;;14.99;nan;101020.09;5016457;28;20109;-73
2023/08/26 07:49:35;;;;;;;7.07;2.90;;;;;;;15.07;nan;101028.53;5024757;28;20037;-73
2023/08/26 07:52:00;;;;;;;7.95;3.20;;;;;;;15.11;nan;101030.13;5010787;28;20032;-73
2023/08/26 07:54:25;;;;;;;6.15;2.78;;;;;;;15.14;nan;101030.00;5010333;28;20025;-73
2023/08/26 07:56:51;;;;;;;5.82;3.10;;;;;;;15.21;nan;101033.25;5019291;28;20038;-73
2023/08/26 07:59:16;;;;;;;7.15;3.10;;;;;;;15.31;nan;101039.00;5017473;28;20044;-73
2023/08/26 08:01:41;;;;;;;6.53;3.10;;;;;;;15.31;nan;101024.09;5019344;28;20029;-73
2023/08/26 08:04:07;;;;;;;4.80;2.55;;;;;;;15.46;nan;101035.72;5021853;28;20021;-73
2023/08/26 08:06:32;;;;;;;4.57;2.28;;;;;;;15.55;nan;101026.63;5016041;28;20112;-73
2023/08/26 08:08:57;;;;;;;7.38;2.45;;;;;;;15.60;nan;101025.53;5008390;28;20026;-74
2023/08/26 08:11:23;;;;;;;5.30;2.60;;;;;;;15.71;nan;101029.50;5024531;28;20396;-74
2023/08/26 08:13:48;;;;;;;5.88;2.20;;;;;;;15.73;nan;101035.53;5012422;28;20034;-74
2023/08/26 08:16:14;;;;;;;4.88;2.17;;;;;;;15.80;nan;101026.50;5020417;28;20036;-73
2023/08/26 08:18:39;;;;;;;5.13;2.40;;;;;;;15.80;nan;101013.38;5020164;28;20022;-74
2023/08/26 08:21:05;;;;;;;3.70;2.05;;;;;;;15.87;nan;101012.19;5015487;28;20351;-73
2023/08/26 08:23:33;;;;;;;7.05;2.63;;;;;;;15.93;nan;101009.28;5009428;28;20040;-73
2023/08/26 08:25:59;;;;;;;6.30;2.63;;;;;;;16.03;nan;101021.13;5018735;28;20045;-74
2023/08/26 08:28:24;;;;;;;4.22;2.00;;;;;;;16.10;nan;101014.66;5019147;28;20086;-73
2023/08/26 08:30:49;;;;;;;7.75;2.13;;;;;;;16.14;nan;101010.13;5023011;28;20478;-73
2023/08/26 08:33:15;;;;;;;4.95;2.00;;;;;;;16.17;nan;101012.63;5015808;28;20067;-73
2023/08/26 08:35:40;;;;;;;4.93;1.92;;;;;;;16.27;nan;101013.06;5023374;28;20034;-74
2023/08/26 08:38:05;;;;;;;4.40;1.90;;;;;;;16.36;nan;101004.75;5020017;28;20121;-73
2023/08/26 08:40:31;;;;;;;4.25;1.95;;;;;;;16.46;nan;101005.22;5023431;28;20037;-73
2023/08/26 08:42:58;;;;;;;5.00;2.33;;;;;;;16.58;nan;101018.66;5012037;28;20030;-74
2023/08/26 08:45:25;;;;;;;6.20;1.70;;;;;;;16.59;nan;101023.00;5003634;28;20060;-73
2023/08/26 08:47:53;;;;;;;6.82;2.20;;;;;;;16.67;nan;101029.69;5011365;28;20107;-74
2023/08/26 08:50:20;;;;;;;3.47;1.60;;;;;;;16.67;nan;101022.63;5019210;28;20049;-73
2023/08/26 08:52:49;;;;;;;5.88;2.30;;;;;;;17.00;nan;101022.03;5012278;28;20025;-76
2023/08/26 08:55:14;;;;;;;3.42;1.90;;;;;;;17.53;nan;101037.03;5008551;28;20034;-74
2023/08/26 08:57:41;;;;;;;5.57;1.90;;;;;;;17.79;nan;101033.13;5019302;28;20029;-73
2023/08/26 09:00:07;;;;;;;3.60;1.80;;;;;;;18.08;nan;101036.03;5015951;28;20034;-74
2023/08/26 09:02:40;;;;;;;4.43;1.77;;;;;;;18.34;nan;101032.91;5010314;28;20038;-73
2023/08/26 09:05:07;;;;;;;3.30;1.67;;;;;;;18.40;nan;101042.28;5007126;28;20087;-74
2023/08/26 09:07:34;;;;;;;3.60;1.80;;;;;;;18.38;nan;101042.38;5016295;28;20040;-74
2023/08/26 09:10:00;;;;;;;4.68;1.83;;;;;;;18.58;nan;101043.97;5013542;28;20029;-74
2023/08/26 09:12:26;;;;;;;7.50;1.75;;;;;;;18.88;nan;101033.53;5015005;28;20760;-74
2023/08/26 09:14:52;;;;;;;5.10;2.05;;;;;;;19.14;nan;101041.81;5196552;23;21183;-75
2023/08/26 09:17:19;;;;;;;4.80;1.60;;;;;;;19.34;nan;101041.53;5025861;28;20041;-76
2023/08/26 09:20:01;;;;;;;3.25;1.98;;;;;;;19.59;nan;101030.41;5034474;28;20022;-75
2023/08/26 09:22:28;;;;;;;3.95;1.80;;;;;;;19.47;nan;101044.34;5042470;28;20044;-75
2023/08/26 09:25:04;;;;;;;5.00;1.42;;;;;;;19.32;nan;101040.75;5035775;28;20036;-75
2023/08/26 09:27:34;;;;;;;4.03;1.58;;;;;;;19.20;nan;101046.75;5044254;28;20501;-75
2023/08/26 09:30:01;;;;;;;3.75;1.58;;;;;;;19.18;nan;101053.91;5031972;28;20025;-75
2023/08/26 09:32:33;;;;;;;2.40;1.23;;;;;;;19.18;nan;101056.56;5034835;28;20098;-75
2023/08/26 09:35:13;;;;;;;3.05;1.30;;;;;;;19.13;nan;101050.69;5035404;28;20034;-75
2023/08/26 09:37:41;;;;;;;3.70;1.55;;;;;;;19.09;nan;101054.41;5035457;28;20086;-75
2023/08/26 09:40:07;;;;;;;2.22;1.10;;;;;;;19.04;nan;101048.56;5041289;28;20029;-75
2023/08/26 09:42:34;;;;;;;4.50;1.90;;;;;;;19.08;nan;101052.72;5035479;28;20029;-75
2023/08/26 09:44:59;;;;;;;4.53;1.63;;;;;;;19.10;nan;101051.72;5026814;28;20028;-76
2023/08/26 09:47:30;;;;;;;5.43;1.52;;;;;;;19.35;nan;101052.94;5030932;28;20029;-74
2023/08/26 09:49:56;;;;;;;4.82;1.60;;;;;;;19.79;nan;101055.72;5026348;28;20037;-75
2023/08/26 09:52:21;;;;;;;2.05;1.23;;;;;;;20.14;nan;101047.47;5028046;28;20025;-74
2023/08/26 09:54:48;;;;;;;3.05;1.30;;;;;;;20.09;nan;101055.69;5044913;28;20100;-74
2023/08/26 09:57:14;;;;;;;2.97;1.30;;;;;;;20.08;nan;101050.50;5045478;28;20028;-74
2023/08/26 09:59:39;;;;;;;2.85;1.33;;;;;;;20.03;nan;101050.75;5044783;28;20024;-74
2023/08/26 10:02:17;;;;;;;3.58;1.35;;;;;;;20.13;nan;101048.41;5046139;28;20024;-74
2023/08/26 10:04:45;;;;;;;3.35;1.67;;;;;;;20.41;nan;101052.91;5034454;28;20043;-74
2023/08/26 10:07:11;;;;;;;5.20;1.55;;;;;;;20.51;nan;101043.47;5041209;28;20025;-73
2023/08/26 10:09:43;;;;;;;3.80;1.50;;;;;;;20.55;nan;101050.28;5036925;28;20038;-74
2023/08/26 10:12:29;;;;;;;4.03;1.50;;;;;;;20.30;nan;101057.97;5043801;28;20027;-74
2023/08/26 10:14:58;;;;;;;5.00;1.80;;;;;;;19.96;nan;101057.38;5038884;28;20049;-73
2023/08/26 10:17:31;;;;;;;2.50;1.63;;;;;;;19.64;nan;101057.47;5038977;28;20030;-74
2023/08/26 10:19:58;;;;;;;2.25;1.40;;;;;;;19.70;nan;101063.34;5042812;28;20383;-75
2023/08/26 10:22:26;;;;;;;2.28;1.35;;;;;;;19.64;nan;101072.47;5036857;28;20030;-74
2023/08/26 10:24:52;;;;;;;1.80;1.23;;;;;;;19.69;nan;101064.28;5033506;28;20112;-74
2023/08/26 10:27:18;;;;;;;3.78;1.30;;;;;;;19.88;nan;101060.47;5031030;28;20522;-74
2023/08/26 10:29:44;;;;;;;1.50;1.00;;;;;;;20.09;nan;101062.78;5041033;28;20037;-74
2023/08/26 10:32:20;;;;;;;5.35;1.63;;;;;;;20.06;nan;101060.31;5044053;28;20021;-75
2023/08/26 10:34:56;;;;;;;2.85;1.38;;;;;;;20.08;nan;101064.59;5037176;28;20052;-74
2023/08/26 10:37:27;;;;;;;2.55;1.42;;;;;;;20.15;nan;101062.44;5037033;28;20068;-75
2023/08/26 10:39:52;;;;;;;2.03;1.17;;;;;;;20.13;nan;101068.75;5036617;28;20135;-74
2023/08/26 10:42:19;;;;;;;3.20;1.30;;;;;;;20.07;nan;101060.22;5039295;28;20064;-74
2023/08/26 10:44:53;;;;;;;2.45;1.23;;;;;;;20.07;nan;101054.91;5039890;28;20371;-75
2023/08/26 10:47:44;;;;;;;4.88;1.60;;;;;;;19.96;nan;101056.53;5048746;28;20056;-75
2023/08/26 10:50:19;;;;;;;3.33;1.70;;;;;;;19.72;nan;101056.16;5034432;28;20041;-74
2023/08/26 10:52:49;;;;;;;3.65;1.33;;;;;;;19.52;nan;101054.63;5041808;28;20028;-74
2023/08/26 10:55:20;;;;;;;2.00;1.20;;;;;;;19.49;nan;101052.16;5036210;28;20021;-75
2023/08/26 10:58:15;;;;;;;3.40;1.00;;;;;;;19.48;nan;101045.19;5035895;28;20071;-75
2023/08/26 11:00:43;;;;;;;2.47;1.08;;;;;;;19.57;nan;101040.22;5037062;28;20383;-75
2023/08/26 11:03:10;;;;;;;2.88;1.50;;;;;;;19.72;nan;101049.09;5045275;28;20044;-76
2023/08/26 11:05:41;;;;;;;2.15;1.30;;;;;;;20.25;nan;101023.84;5039786;28;20069;-74
2023/08/26 11:08:07;;;;;;;3.85;1.40;;;;;;;20.97;nan;101010.59;5041093;28;20419;-74
2023/08/26 11:10:40;;;;;;;2.65;1.60;;;;;;;21.32;nan;101029.50;5036822;28;20060;-75
2023/08/26 11:13:07;;;;;;;3.08;1.20;;;;;;;21.54;nan;101039.56;5044828;28;20071;-75
2023/08/26 11:15:39;;;;;;;2.55;1.45;;;;;;;21.73;nan;101029.44;5029379;28;20042;-74
2023/08/26 11:18:10;;;;;;;4.27;1.47;;;;;;;22.27;nan;101009.00;5038423;28;20087;-75
2023/08/26 11:20:35;;;;;;;3.20;1.40;;;;;;;22.62;nan;101025.09;5034579;28;20043;-74
2023/08/26 11:23:02;;;;;;;6.55;1.55;;;;;;;22.09;nan;101032.34;5039822;28;20099;-74
2023/08/26 11:25:29;;;;;;;1.75;1.30;;;;;;;21.45;nan;101041.03;5035539;28;20053;-74
2023/08/26 11:27:54;;;;;;;5.60;1.38;;;;;;;20.93;nan;101023.19;5043655;28;20116;-74
2023/08/26 11:30:20;;;;;;;2.65;1.40;;;;;;;20.93;nan;101038.25;5044886;28;20519;-75
2023/08/26 11:32:48;;;;;;;5.50;1.27;;;;;;;21.11;nan;101023.78;5036787;28;20480;-74
2023/08/26 11:35:14;;;;;;;2.70;1.20;;;;;;;21.33;nan;101017.09;5028723;28;20547;-75
2023/08/26 11:37:46;;;;;;;3.05;1.30;;;;;;;21.77;nan;101021.25;5044010;28;20475;-75